Airfield :
LOGIN :

Register | Disclaimer

   EN    FR    IT 

 










Legend :    VFR   Marginal VFR   IFR   Intensive IFR   Very Intensive IFR
Visi :
Ceiling :
>= 8 km
>= 3000ft
5 to 8 km
1000 to 3000 ft
1500m to 5 km
500 to 1000 ft
800 to 1500m
200 to 500 ft
< 800m
< 200 ft
Symbols :   Thunderstorms  Fog  Heavy snow  Heavy precipitations  Wind > 20 kt
SIGMETs :     Misc.  Thunderstorms  Icing  Turbulence  Mountain Waves  Volcanic Ashes






- Airport Elevation : 357 ft
- IATA code : TUF


LFOT - Tours

CURRENT METAR :
  • 281200Z AUTO 22014KT 190V250 9999 SCT026 SCT052 OVC092 15/10 Q1014 TEMPO 23015G30KT 3000 SHRA

EXPIRED METARs :
  • 281130Z AUTO 23014KT 9999 SCT022 BKN060 BKN076 14/10 Q1014 TEMPO 23015G30KT 3000 SHRA
  • 281100Z AUTO 22012KT 190V250 9999 FEW021 SCT068 OVC082 14/11 Q1015 NOSIG
  • 281030Z AUTO 22011KT 9999 FEW035 BKN096 BKN180 14/10 Q1014 NOSIG
  • 281000Z AUTO 22011KT 190V250 CAVOK 13/10 Q1014 NOSIG
  • 280930Z AUTO 22009KT CAVOK 13/10 Q1014 NOSIG

TAF TAF LFOT
Valid from the 28 at 12:00 until the 29 at 12:00 UTC


281100Z 2812/2912 23012KT 9999 BKN030
TEMPO 2812/2904 3000 SHRA BKN020
TEMPO 2812/2822 23015G30KT
PROB30
TEMPO 2822/2906 BKN011



MET'MAP, your aeronautical weather chart ! - Copyright ORBIFLY December 2007 - Disclaimer

ORBIFLY MET'MAP TEAM :

Programming & Development : Alexandra Zaïnal
Concept & original design : Baudouin d'Aumeries
Assistance for programming : Marc-Olivier Méhu
Technical & hardware support : Manuel Goepfert

Contact : metmap@orbifly.com




SOURCES & CREDITS :

   NOAA